Time;durP1;ratioP1;P1;durP2;ratioP2;P2;SDS_P1;SDS_P2;PMS_P1;PMS_P2;Temp;Humidity;BMP_temperature;BMP_pressure;BME280_temperature;BME280_humidity;BME280_pressure;Samples;Min_cycle;Max_cycle;Signal;HPM_P1;HPM_P2
2021/01/01 00:00:22;;;;;;;94.70;31.13;;;;;;;3.13;70.41;99460.66;118555;1148;104458;-75
2021/01/01 00:02:51;;;;;;;34.80;14.33;;;;;;;3.18;71.32;99456.84;118599;1147;104492;-75
2021/01/01 00:05:19;;;;;;;26.45;11.40;;;;;;;3.18;69.95;99462.11;118597;1147;104602;-74
2021/01/01 00:07:47;;;;;;;25.17;12.17;;;;;;;3.20;70.80;99470.73;118610;1147;104458;-75
2021/01/01 00:10:15;;;;;;;31.20;14.45;;;;;;;3.23;70.85;99460.74;118567;1146;104473;-76
2021/01/01 00:12:44;;;;;;;35.33;15.40;;;;;;;3.26;70.76;99465.77;118487;1148;104453;-75
2021/01/01 00:15:14;;;;;;;22.17;11.00;;;;;;;3.25;70.85;99458.84;118539;1148;104533;-75
2021/01/01 00:17:42;;;;;;;23.77;12.57;;;;;;;3.22;70.76;99463.53;118548;1147;105228;-76
2021/01/01 00:20:12;;;;;;;16.35;8.70;;;;;;;3.19;70.59;99459.33;118468;1147;104597;-76
2021/01/01 00:22:43;;;;;;;24.93;13.30;;;;;;;3.22;70.50;99463.53;118480;1147;104442;-76
2021/01/01 00:25:12;;;;;;;53.40;21.47;;;;;;;3.13;70.92;99465.93;118551;1146;104569;-76
2021/01/01 00:27:40;;;;;;;124.90;57.40;;;;;;;3.09;70.45;99475.05;118516;1148;104562;-76
2021/01/01 00:30:11;;;;;;;70.03;27.70;;;;;;;3.10;70.27;99474.11;118498;1148;104476;-76
2021/01/01 00:32:43;;;;;;;40.97;17.03;;;;;;;3.14;70.29;99469.42;118459;1147;104892;-76
2021/01/01 00:35:12;;;;;;;26.12;12.00;;;;;;;3.15;70.75;99468.45;118562;1147;104476;-76
2021/01/01 00:37:40;;;;;;;49.05;19.90;;;;;;;3.18;71.15;99473.48;118622;1147;104629;-75
2021/01/01 00:40:10;;;;;;;41.70;16.45;;;;;;;3.20;69.84;99470.73;118436;1146;104485;-74
2021/01/01 00:42:38;;;;;;;40.05;16.70;;;;;;;3.18;70.09;99472.66;118549;1147;104450;-75
2021/01/01 00:45:08;;;;;;;23.93;10.00;;;;;;;3.09;70.14;99472.42;118481;1147;104522;-75
2021/01/01 00:47:36;;;;;;;31.43;16.43;;;;;;;3.02;70.64;99471.27;118504;1147;104562;-74
2021/01/01 00:50:06;;;;;;;32.90;17.90;;;;;;;2.95;70.28;99472.71;118667;1147;104479;-74
2021/01/01 00:52:37;;;;;;;22.55;11.50;;;;;;;2.93;70.60;99466.73;118915;1147;104460;-76
2021/01/01 00:55:08;;;;;;;18.30;9.95;;;;;;;2.93;70.67;99469.36;118809;1147;104655;-76
2021/01/01 00:57:36;;;;;;;19.03;8.47;;;;;;;2.97;71.12;99473.42;118594;1147;104535;-75
2021/01/01 01:00:06;;;;;;;16.43;8.60;;;;;;;2.98;70.97;99469.81;118802;1146;104479;-74
2021/01/01 01:02:35;;;;;;;17.37;8.40;;;;;;;2.95;70.16;99470.08;118799;1147;104464;-74
2021/01/01 01:05:04;;;;;;;13.90;7.37;;;;;;;2.87;70.22;99473.33;118936;1147;104536;-75
2021/01/01 01:07:32;;;;;;;11.80;5.77;;;;;;;2.82;70.66;99469.38;118776;1148;104448;-75
2021/01/01 01:10:00;;;;;;;14.33;6.30;;;;;;;2.78;71.56;99460.05;118737;1147;104550;-75
2021/01/01 01:12:29;;;;;;;15.55;6.50;;;;;;;2.80;70.63;99469.50;118773;1147;104479;-75
2021/01/01 01:14:58;;;;;;;18.13;9.27;;;;;;;2.85;70.52;99469.98;118987;1148;104548;-74
2021/01/01 01:17:26;;;;;;;18.70;7.97;;;;;;;2.88;70.89;99466.25;118896;1147;104548;-76
2021/01/01 01:19:54;;;;;;;25.43;12.40;;;;;;;2.89;70.26;99470.58;118901;1147;104546;-74
2021/01/01 01:22:22;;;;;;;31.50;16.57;;;;;;;2.83;70.48;99471.91;118819;1148;104951;-75
2021/01/01 01:24:50;;;;;;;17.43;9.10;;;;;;;2.77;71.19;99463.63;118920;1147;104543;-74
2021/01/01 01:27:18;;;;;;;33.97;19.60;;;;;;;2.67;70.58;99467.00;118731;1147;104454;-75
2021/01/01 01:29:46;;;;;;;20.23;10.60;;;;;;;2.60;71.47;99468.47;118966;1147;104499;-75
2021/01/01 01:32:14;;;;;;;18.80;8.83;;;;;;;2.57;70.88;99476.59;118947;1147;104548;-74
2021/01/01 01:34:42;;;;;;;19.65;8.35;;;;;;;2.60;71.58;99468.47;118946;1147;104556;-74
2021/01/01 01:37:11;;;;;;;21.30;9.17;;;;;;;2.63;70.89;99473.47;118769;1147;104582;-74
2021/01/01 01:39:39;;;;;;;18.53;7.60;;;;;;;2.66;70.71;99472.41;118642;1147;104489;-74
2021/01/01 01:42:07;;;;;;;16.35;7.75;;;;;;;2.69;71.67;99478.25;118763;1147;104553;-73
2021/01/01 01:44:35;;;;;;;17.30;8.00;;;;;;;2.74;71.70;99478.73;118947;1147;104481;-73
2021/01/01 01:47:04;;;;;;;23.57;11.57;;;;;;;2.76;70.62;99478.61;118692;1147;104522;-73
2021/01/01 01:49:34;;;;;;;19.40;9.50;;;;;;;2.78;70.88;99471.42;118893;1147;104476;-75
2021/01/01 01:52:02;;;;;;;20.45;10.95;;;;;;;2.81;70.80;99481.73;118695;1148;104454;-73
2021/01/01 01:54:32;;;;;;;18.77;10.43;;;;;;;2.83;71.56;99479.81;118876;1147;104639;-76
2021/01/01 01:57:00;;;;;;;16.33;8.80;;;;;;;2.84;70.49;99476.20;118929;1147;104470;-75
2021/01/01 01:59:29;;;;;;;20.00;8.60;;;;;;;2.84;71.56;99475.36;118918;1147;104550;-75
2021/01/01 02:01:57;;;;;;;17.43;7.40;;;;;;;2.82;70.68;99477.28;118880;1147;104478;-76
2021/01/01 02:04:25;;;;;;;17.70;7.30;;;;;;;2.82;71.18;99479.92;118857;1147;104904;-76
2021/01/01 02:06:54;;;;;;;13.73;6.57;;;;;;;2.82;70.48;99479.92;118742;1147;104557;-76
2021/01/01 02:09:22;;;;;;;14.27;6.60;;;;;;;2.85;71.64;99471.75;118951;1147;104471;-75
2021/01/01 02:11:51;;;;;;;14.77;6.50;;;;;;;2.89;70.15;99478.48;118791;1148;104559;-76
2021/01/01 02:14:19;;;;;;;15.30;6.60;;;;;;;2.87;71.50;99480.41;118800;1148;104878;-76
2021/01/01 02:16:49;;;;;;;12.85;6.50;;;;;;;2.87;70.82;99485.67;118728;1147;104521;-76
2021/01/01 02:19:18;;;;;;;13.43;6.30;;;;;;;2.89;70.75;99475.84;118905;1147;104604;-75
2021/01/01 02:21:48;;;;;;;15.00;7.33;;;;;;;2.90;70.43;99482.77;118866;1147;104478;-77
2021/01/01 02:24:16;;;;;;;19.63;9.53;;;;;;;2.88;70.43;99482.06;118842;1147;104722;-73
2021/01/01 02:26:44;;;;;;;21.70;8.80;;;;;;;2.86;70.23;99478.71;118900;1147;104563;-74
2021/01/01 02:29:12;;;;;;;22.60;10.97;;;;;;;2.86;71.46;99478.71;118750;1147;105010;-73
2021/01/01 02:31:40;;;;;;;18.67;9.43;;;;;;;2.88;70.43;99482.89;118883;1147;104550;-73
2021/01/01 02:34:09;;;;;;;19.77;9.63;;;;;;;2.94;70.80;99481.56;118898;1148;104519;-73
2021/01/01 02:36:37;;;;;;;30.53;11.77;;;;;;;2.98;71.18;99482.98;118933;1147;104572;-73
2021/01/01 02:39:05;;;;;;;21.87;10.63;;;;;;;3.02;70.82;99483.58;118915;1148;104572;-73
2021/01/01 02:41:34;;;;;;;17.70;7.80;;;;;;;3.01;70.42;99487.19;119021;1147;104550;-73
2021/01/01 02:44:02;;;;;;;14.05;7.00;;;;;;;2.98;71.07;99485.63;118771;1147;104534;-73
2021/01/01 02:46:30;;;;;;;13.80;6.47;;;;;;;2.96;70.59;99484.91;118892;1147;104585;-73
2021/01/01 02:48:58;;;;;;;12.60;5.80;;;;;;;2.90;71.11;99480.14;118740;1147;104549;-74
2021/01/01 02:51:26;;;;;;;14.23;6.10;;;;;;;2.90;70.89;99488.05;118824;1147;104551;-74
2021/01/01 02:53:54;;;;;;;15.35;6.35;;;;;;;2.89;70.11;99486.38;118860;1148;104998;-74
2021/01/01 02:56:22;;;;;;;11.30;5.50;;;;;;;2.90;70.98;99488.88;118800;1147;104531;-75
2021/01/01 02:58:50;;;;;;;13.23;6.57;;;;;;;2.94;69.93;99484.20;118901;1147;104474;-76
2021/01/01 03:01:21;;;;;;;10.50;5.10;;;;;;;2.92;69.78;99483.48;118973;1146;104556;-76
2021/01/01 03:03:49;;;;;;;12.77;5.50;;;;;;;2.90;70.76;99478.33;118826;1147;104476;-76
2021/01/01 03:06:17;;;;;;;15.27;6.33;;;;;;;2.92;70.99;99478.22;119013;1147;104476;-76
2021/01/01 03:08:45;;;;;;;14.00;6.33;;;;;;;2.91;70.46;99471.28;118794;1148;104539;-76
2021/01/01 03:11:13;;;;;;;11.97;6.33;;;;;;;2.89;71.22;99474.04;118643;1147;104497;-75
2021/01/01 03:13:41;;;;;;;12.73;6.73;;;;;;;2.86;71.35;99468.17;118952;1147;104582;-75
2021/01/01 03:16:09;;;;;;;10.93;5.67;;;;;;;2.83;70.12;99465.77;118765;1148;104585;-75
2021/01/01 03:18:37;;;;;;;17.10;8.40;;;;;;;2.84;71.55;99470.09;118777;1147;104586;-74
2021/01/01 03:21:06;;;;;;;17.17;8.87;;;;;;;2.86;71.09;99474.27;118883;1147;104521;-75
2021/01/01 03:23:34;;;;;;;13.63;6.60;;;;;;;2.91;70.70;99471.28;118916;1148;104911;-74
2021/01/01 03:26:02;;;;;;;13.73;7.17;;;;;;;2.96;71.42;99471.73;118963;1147;104505;-75
2021/01/01 03:28:30;;;;;;;13.10;6.40;;;;;;;2.99;70.08;99470.67;118852;1147;104508;-75
2021/01/01 03:30:58;;;;;;;13.10;7.23;;;;;;;2.97;70.35;99475.23;118861;1148;104548;-74
2021/01/01 03:33:26;;;;;;;13.87;6.37;;;;;;;2.99;70.18;99468.86;118813;1147;104710;-75
2021/01/01 03:35:54;;;;;;;12.03;5.70;;;;;;;2.97;69.88;99476.06;118899;1147;104589;-75
2021/01/01 03:38:23;;;;;;;14.83;6.40;;;;;;;2.94;70.78;99476.30;118752;1147;104476;-76
2021/01/01 03:40:51;;;;;;;12.37;5.73;;;;;;;2.92;71.16;99480.84;118938;1148;104545;-75
2021/01/01 03:43:19;;;;;;;14.53;6.00;;;;;;;2.90;70.46;99475.70;119016;1147;104575;-74
2021/01/01 03:45:47;;;;;;;14.90;5.77;;;;;;;2.87;70.86;99481.23;119002;1148;104536;-75
2021/01/01 03:48:16;;;;;;;13.33;5.83;;;;;;;2.87;70.59;99481.23;118891;1147;104457;-76
2021/01/01 03:50:44;;;;;;;9.83;4.53;;;;;;;2.89;70.52;99476.67;118831;1148;104556;-75
2021/01/01 03:53:12;;;;;;;33.70;14.17;;;;;;;2.88;69.70;99469.71;118738;1147;104551;-74
2021/01/01 03:55:41;;;;;;;22.50;10.10;;;;;;;2.90;70.81;99472.23;118733;1148;104534;-76
2021/01/01 03:58:09;;;;;;;18.90;9.23;;;;;;;2.90;70.75;99464.33;118651;1147;104521;-75
2021/01/01 04:00:37;;;;;;;20.80;9.15;;;;;;;2.85;70.77;99467.34;118804;1147;104478;-74
2021/01/01 04:03:07;;;;;;;15.80;7.47;;;;;;;2.82;70.47;99472.02;118841;1147;104544;-77
2021/01/01 04:05:35;;;;;;;11.50;5.37;;;;;;;2.81;70.28;99467.69;118922;1147;104601;-76
2021/01/01 04:08:03;;;;;;;14.97;6.27;;;;;;;2.80;71.37;99472.13;118970;1147;104476;-76
2021/01/01 04:10:31;;;;;;;14.57;6.20;;;;;;;2.81;70.36;99471.19;118813;1147;104476;-74
2021/01/01 04:12:59;;;;;;;13.20;5.83;;;;;;;2.84;70.62;99470.92;118764;1147;104640;-74
2021/01/01 04:15:27;;;;;;;13.70;5.70;;;;;;;2.88;70.83;99469.71;118887;1147;104659;-74
2021/01/01 04:17:55;;;;;;;12.93;5.87;;;;;;;2.91;69.88;99476.56;118986;1147;104538;-73
2021/01/01 04:20:24;;;;;;;13.30;6.57;;;;;;;2.93;70.24;99472.83;118887;1147;104597;-74
2021/01/01 04:22:52;;;;;;;14.93;7.23;;;;;;;2.95;70.56;99470.08;119040;1147;105557;-74
2021/01/01 04:25:20;;;;;;;13.27;6.70;;;;;;;2.92;70.50;99475.58;118890;1147;104575;-74
2021/01/01 04:27:48;;;;;;;13.67;6.63;;;;;;;2.87;70.48;99481.23;118936;1148;104556;-75
2021/01/01 04:30:19;;;;;;;14.50;6.80;;;;;;;2.85;70.88;99469.98;118836;1147;104628;-80
2021/01/01 04:32:47;;;;;;;13.73;5.77;;;;;;;2.85;70.82;99474.39;118903;1147;104494;-76
2021/01/01 04:35:16;;;;;;;15.00;6.13;;;;;;;2.86;70.17;99476.91;118784;1147;104576;-76
2021/01/01 04:37:44;;;;;;;13.97;5.70;;;;;;;2.86;69.86;99473.44;118959;1147;104450;-77
2021/01/01 04:40:14;;;;;;;14.30;6.17;;;;;;;2.89;70.76;99483.75;118907;1147;104478;-76
2021/01/01 04:42:42;;;;;;;10.37;4.60;;;;;;;2.90;70.61;99474.87;118912;1147;104633;-77
2021/01/01 04:45:13;;;;;;;12.63;5.90;;;;;;;2.91;70.46;99482.66;118991;1147;104595;-76
2021/01/01 04:47:42;;;;;;;12.58;5.20;;;;;;;2.93;69.86;99479.91;118952;1147;104487;-77
2021/01/01 04:50:12;;;;;;;12.20;5.83;;;;;;;2.94;70.87;99489.47;118641;1147;104583;-77
2021/01/01 04:52:41;;;;;;;12.20;6.17;;;;;;;2.89;70.45;99475.84;118702;1148;104617;-76
2021/01/01 04:55:11;;;;;;;12.17;5.77;;;;;;;2.89;70.57;99489.02;118652;1147;104659;-77
2021/01/01 04:57:39;;;;;;;14.23;6.00;;;;;;;2.89;70.55;99489.84;118542;1147;104551;-76
2021/01/01 05:00:09;;;;;;;11.03;5.80;;;;;;;2.89;71.32;99489.02;118519;1147;104479;-76
2021/01/01 05:02:38;;;;;;;15.00;6.70;;;;;;;2.88;71.30;99497.87;118616;1148;104454;-77
2021/01/01 05:05:09;;;;;;;13.67;6.27;;;;;;;2.84;70.74;99499.08;118658;1147;104864;-76
2021/01/01 05:07:38;;;;;;;13.78;5.95;;;;;;;2.80;71.28;99498.48;118573;1147;104588;-76
2021/01/01 05:10:10;;;;;;;12.37;4.93;;;;;;;2.79;70.86;99504.73;118547;1147;104553;-76
2021/01/01 05:12:38;;;;;;;11.05;5.35;;;;;;;2.80;70.79;99509.02;118793;1147;104610;-77
2021/01/01 05:15:08;;;;;;;12.10;5.83;;;;;;;2.84;70.18;99505.17;118595;1148;104601;-78
2021/01/01 05:17:38;;;;;;;11.15;5.15;;;;;;;2.86;70.39;99503.25;118561;1147;104469;-78
2021/01/01 05:20:09;;;;;;;13.13;6.33;;;;;;;2.86;70.25;99495.34;118658;1148;104549;-78
2021/01/01 05:22:37;;;;;;;12.07;5.23;;;;;;;2.88;70.61;99501.33;118601;1147;104556;-78
2021/01/01 05:25:17;;;;;;;12.47;7.20;;;;;;;2.90;71.13;99498.58;118596;1147;104572;-78
2021/01/01 05:27:48;;;;;;;127.50;47.83;;;;;;;2.88;70.38;99503.97;118408;1147;104562;-76
2021/01/01 05:30:29;;;;;;;440.10;161.10;;;;;;;2.83;70.09;99500.02;118598;1147;104466;-76
2021/01/01 05:32:57;;;;;;;69.50;25.07;;;;;;;2.79;69.75;99498.59;118654;1147;104660;-77
2021/01/01 05:35:30;;;;;;;32.27;13.43;;;;;;;2.83;70.55;99502.66;118774;1147;104563;-77
2021/01/01 05:38:14;;;;;;;30.03;12.77;;;;;;;2.85;71.22;99503.38;118888;1147;104541;-77
2021/01/01 05:40:46;;;;;;;25.60;9.63;;;;;;;2.89;70.13;99507.47;118664;1146;104479;-77
2021/01/01 05:43:23;;;;;;;21.43;10.80;;;;;;;2.90;70.15;99503.85;118672;1147;104605;-76
2021/01/01 05:45:51;;;;;;;18.47;8.70;;;;;;;2.88;70.26;99503.97;118804;1147;104517;-76
2021/01/01 05:48:19;;;;;;;15.60;7.73;;;;;;;2.90;70.78;99506.48;118638;1147;104456;-77
2021/01/01 05:51:04;;;;;;;16.17;7.90;;;;;;;2.90;70.59;99503.85;118493;1147;104468;-76
2021/01/01 05:53:32;;;;;;;24.23;13.87;;;;;;;2.89;70.00;99510.10;118579;1148;104611;-76
2021/01/01 05:56:08;;;;;;;14.90;7.40;;;;;;;2.88;70.32;99508.41;118539;1148;104588;-76
2021/01/01 05:58:39;;;;;;;15.87;6.37;;;;;;;2.78;71.06;99502.20;118546;1147;104545;-76
2021/01/01 06:01:08;;;;;;;17.00;6.80;;;;;;;2.79;70.05;99504.73;118793;1147;105052;-76
2021/01/01 06:03:38;;;;;;;22.93;10.40;;;;;;;2.81;71.01;99507.22;118607;1147;104490;-76
2021/01/01 06:06:07;;;;;;;40.73;18.33;;;;;;;2.83;70.00;99505.29;118588;1148;104517;-78
2021/01/01 06:08:36;;;;;;;27.23;12.83;;;;;;;2.86;71.13;99500.62;118640;1148;104463;-77
2021/01/01 06:11:05;;;;;;;21.10;9.83;;;;;;;2.86;70.46;99505.06;118646;1147;104465;-77
2021/01/01 06:13:35;;;;;;;16.70;7.43;;;;;;;2.85;70.40;99512.14;118716;1147;104944;-77
2021/01/01 06:16:05;;;;;;;16.60;7.60;;;;;;;2.87;69.92;99506.75;118558;1147;104556;-77
2021/01/01 06:18:35;;;;;;;17.67;8.03;;;;;;;2.85;71.10;99504.23;118531;1147;104745;-75
2021/01/01 06:21:05;;;;;;;18.35;9.45;;;;;;;2.84;70.26;99502.54;118634;1147;104505;-75
2021/01/01 06:23:36;;;;;;;15.75;8.35;;;;;;;2.78;69.88;99504.84;118588;1147;104698;-75
2021/01/01 06:26:06;;;;;;;15.70;7.00;;;;;;;2.68;70.87;99505.56;118611;1148;104474;-77
2021/01/01 06:28:36;;;;;;;15.40;6.30;;;;;;;2.68;70.05;99512.64;118695;1147;104457;-78
2021/01/01 06:31:06;;;;;;;17.93;6.63;;;;;;;2.71;70.45;99510.60;118656;1147;104576;-77
2021/01/01 06:33:35;;;;;;;11.70;5.23;;;;;;;2.76;70.34;99504.95;118626;1147;104626;-77
2021/01/01 06:36:04;;;;;;;14.33;6.73;;;;;;;2.80;70.59;99500.28;118755;1147;104517;-77
2021/01/01 06:38:37;;;;;;;13.30;6.13;;;;;;;2.83;70.42;99510.56;118945;1147;104461;-80
2021/01/01 06:41:11;;;;;;;24.27;11.17;;;;;;;2.84;70.84;99507.81;118648;1147;106031;-78
2021/01/01 06:43:56;;;;;;;18.27;7.63;;;;;;;2.77;69.96;99517.16;118491;1147;104628;-78
2021/01/01 06:46:36;;;;;;;18.57;8.27;;;;;;;2.62;70.32;99513.95;118485;1147;104623;-78
2021/01/01 06:49:06;;;;;;;12.60;5.53;;;;;;;2.55;70.04;99520.66;118516;1147;104479;-78
2021/01/01 06:51:37;;;;;;;28.07;11.73;;;;;;;2.48;69.32;99522.94;118602;1147;104452;-78
2021/01/01 06:54:15;;;;;;;17.53;7.60;;;;;;;2.40;70.79;99529.74;118662;1147;104633;-77
2021/01/01 06:56:44;;;;;;;12.13;5.97;;;;;;;2.34;70.38;99509.99;118791;1147;104538;-78
2021/01/01 06:59:14;;;;;;;22.53;8.37;;;;;;;2.34;69.54;99516.09;118506;1147;104503;-79
2021/01/01 07:01:44;;;;;;;22.67;9.87;;;;;;;2.35;69.80;99516.95;118437;1147;104496;-78
2021/01/01 07:04:13;;;;;;;13.30;5.85;;;;;;;2.34;69.91;99520.52;118549;1147;104481;-79
2021/01/01 07:06:43;;;;;;;16.20;7.57;;;;;;;2.36;70.05;99524.70;118566;1147;104534;-79
2021/01/01 07:09:15;;;;;;;15.00;6.13;;;;;;;2.40;70.53;99524.48;118495;1147;104474;-78
2021/01/01 07:11:46;;;;;;;13.30;6.43;;;;;;;2.38;71.15;99518.49;118656;1148;104576;-78
2021/01/01 07:14:22;;;;;;;11.40;5.45;;;;;;;2.33;70.33;99526.77;118551;1147;104465;-78
2021/01/01 07:16:56;;;;;;;12.77;6.30;;;;;;;2.27;70.20;99530.70;118630;1147;104528;-75
2021/01/01 07:19:24;;;;;;;19.27;9.27;;;;;;;2.28;70.21;99524.47;118757;1147;104658;-75
2021/01/01 07:21:52;;;;;;;14.20;6.05;;;;;;;2.28;70.61;99529.73;118614;1147;104663;-76
2021/01/01 07:24:20;;;;;;;17.80;8.40;;;;;;;2.30;69.95;99538.34;118781;1147;104543;-77
2021/01/01 07:26:49;;;;;;;19.17;7.67;;;;;;;2.32;70.38;99531.16;118746;1148;104556;-77
2021/01/01 07:29:25;;;;;;;17.50;7.10;;;;;;;2.39;70.28;99542.08;118486;1148;104463;-75
2021/01/01 07:31:54;;;;;;;10.67;5.10;;;;;;;2.35;70.60;99538.02;118949;1147;104455;-77
2021/01/01 07:34:22;;;;;;;98.13;34.33;;;;;;;2.36;71.13;99537.87;118754;1147;104562;-80
2021/01/01 07:36:53;;;;;;;35.43;13.40;;;;;;;2.40;70.71;99535.84;118711;1147;104606;-76
2021/01/01 07:39:28;;;;;;;21.63;8.97;;;;;;;2.39;70.02;99533.31;118916;1147;104550;-77
2021/01/01 07:42:07;;;;;;;15.57;6.53;;;;;;;2.40;70.33;99538.47;119006;1147;104553;-76
2021/01/01 07:44:35;;;;;;;15.27;6.70;;;;;;;2.44;70.12;99533.81;119026;1147;104713;-75
2021/01/01 07:47:09;;;;;;;11.85;6.00;;;;;;;2.46;70.06;99539.80;118944;1148;104463;-76
2021/01/01 07:49:37;;;;;;;10.80;5.20;;;;;;;2.43;70.31;99538.25;119020;1147;104476;-76
2021/01/01 07:52:06;;;;;;;11.87;5.67;;;;;;;2.43;69.85;99540.88;118696;1147;104528;-77
2021/01/01 07:54:48;;;;;;;11.40;4.63;;;;;;;2.44;70.21;99542.54;118833;1147;104629;-76
2021/01/01 07:57:20;;;;;;;;;;;;;;;2.47;69.72;99542.31;118972;1147;104544;-75
2021/01/01 07:59:48;;;;;;;13.77;5.30;;;;;;;2.51;69.86;99542.92;119006;1147;104578;-76
2021/01/01 08:02:16;;;;;;;11.67;5.07;;;;;;;2.53;70.06;99547.09;119021;1147;104538;-76
2021/01/01 08:04:48;;;;;;;10.03;4.40;;;;;;;2.53;69.62;99556.80;119001;1146;104532;-75
2021/01/01 08:07:22;;;;;;;11.55;4.85;;;;;;;2.52;69.98;99557.75;118965;1147;104458;-75
2021/01/01 08:09:50;;;;;;;9.37;4.43;;;;;;;2.48;70.11;99549.27;118664;1148;104550;-74
2021/01/01 08:12:19;;;;;;;9.27;3.67;;;;;;;2.49;70.33;99555.37;118492;1147;105004;-75
2021/01/01 08:14:51;;;;;;;11.80;5.00;;;;;;;2.50;70.97;99551.77;118487;1147;104524;-73
2021/01/01 08:17:24;;;;;;;13.13;5.30;;;;;;;2.54;70.86;99553.20;118516;1147;104476;-76
2021/01/01 08:19:52;;;;;;;111.53;72.57;;;;;;;2.57;69.46;99555.61;118526;1147;104561;-75
2021/01/01 08:22:27;;;;;;;160.90;79.90;;;;;;;2.55;69.75;99560.16;118534;1147;104553;-77
2021/01/01 08:24:57;;;;;;;88.95;43.70;;;;;;;2.54;70.19;99566.36;118510;1147;104624;-75
2021/01/01 08:27:26;;;;;;;58.23;37.20;;;;;;;2.53;69.40;99562.07;118557;1147;104479;-74
2021/01/01 08:29:55;;;;;;;45.60;23.45;;;;;;;2.52;69.43;99563.02;118532;1147;104565;-74
2021/01/01 08:32:25;;;;;;;29.43;17.10;;;;;;;2.50;70.50;99564.93;118633;1147;104454;-74
2021/01/01 08:34:53;;;;;;;37.80;22.23;;;;;;;2.43;69.37;99569.02;118825;1147;104611;-74
2021/01/01 08:37:24;;;;;;;23.15;11.95;;;;;;;2.39;69.63;99563.14;118629;1147;104899;-75
2021/01/01 08:40:03;;;;;;;93.35;61.90;;;;;;;2.36;70.19;99566.83;118563;1146;104496;-77
2021/01/01 08:42:34;;;;;;;184.60;129.87;;;;;;;2.35;70.23;99570.44;118685;1146;104476;-75
2021/01/01 08:45:04;;;;;;;83.47;51.37;;;;;;;2.33;71.12;99577.61;118566;1147;104500;-75
2021/01/01 08:47:43;;;;;;;49.10;26.50;;;;;;;2.36;69.45;99579.16;118737;1147;104477;-75
2021/01/01 08:50:27;;;;;;;26.60;14.93;;;;;;;2.34;69.82;99574.00;118748;1147;104585;-76
2021/01/01 08:53:00;;;;;;;28.90;17.20;;;;;;;2.34;69.60;99573.17;118805;1147;104556;-76
2021/01/01 08:55:29;;;;;;;17.53;9.37;;;;;;;2.36;69.28;99572.09;118808;1147;104525;-75
2021/01/01 08:58:08;;;;;;;17.10;10.10;;;;;;;2.40;69.90;99580.59;118624;1147;104593;-76
2021/01/01 09:00:37;;;;;;;42.43;25.43;;;;;;;2.46;70.98;99572.22;118640;1147;104479;-78
2021/01/01 09:03:07;;;;;;;22.93;12.27;;;;;;;2.46;70.19;99577.48;118624;1146;104476;-76
2021/01/01 09:05:36;;;;;;;65.40;35.97;;;;;;;2.43;69.35;99583.01;118731;1147;104553;-78
2021/01/01 09:08:13;;;;;;;30.13;16.80;;;;;;;2.40;70.50;99575.33;118616;1147;104528;-75
2021/01/01 09:10:43;;;;;;;24.00;14.15;;;;;;;2.42;70.99;99568.16;118610;1146;104588;-77
2021/01/01 09:13:18;;;;;;;25.05;14.35;;;;;;;2.39;69.97;99571.04;118870;1146;104479;-77
2021/01/01 09:15:59;;;;;;;24.70;13.00;;;;;;;2.31;70.10;99568.99;118692;1147;104612;-73
2021/01/01 09:18:27;;;;;;;26.23;13.77;;;;;;;2.34;69.47;99578.44;119214;1147;104541;-72
2021/01/01 09:21:10;;;;;;;185.27;71.10;;;;;;;2.39;70.49;99572.81;119101;1147;104477;-73
2021/01/01 09:23:38;;;;;;;286.40;131.85;;;;;;;2.41;70.36;99576.20;118832;1147;104476;-75
2021/01/01 09:26:07;;;;;;;94.53;41.90;;;;;;;2.45;71.00;99577.63;118894;1147;104969;-77
2021/01/01 09:28:36;;;;;;;111.20;47.80;;;;;;;2.42;70.23;99569.95;118938;1147;104541;-76
2021/01/01 09:31:04;;;;;;;104.63;48.33;;;;;;;2.42;69.77;99564.69;118625;1147;104462;-76
2021/01/01 09:33:33;;;;;;;57.80;25.85;;;;;;;2.39;70.34;99564.91;118626;1147;104550;-74
2021/01/01 09:36:01;;;;;;;74.23;34.50;;;;;;;2.36;69.40;99579.99;118693;1146;104460;-73
2021/01/01 09:38:29;;;;;;;145.17;66.47;;;;;;;2.37;69.87;99578.22;118593;1148;104453;-74
2021/01/01 09:40:57;;;;;;;51.55;22.80;;;;;;;2.38;69.53;99579.88;118583;1148;104492;-72
2021/01/01 09:43:25;;;;;;;95.07;44.57;;;;;;;2.39;70.47;99576.30;118851;1147;104454;-71
2021/01/01 09:45:53;;;;;;;94.70;44.17;;;;;;;2.40;70.01;99571.87;118692;1147;104633;-76
2021/01/01 09:48:22;;;;;;;115.93;60.10;;;;;;;2.34;70.47;99568.73;118688;1146;104510;-73
2021/01/01 09:50:51;;;;;;;91.63;42.63;;;;;;;2.39;70.14;99567.55;119176;1147;104564;-75
2021/01/01 09:53:19;;;;;;;51.60;25.10;;;;;;;2.40;69.37;99564.80;119017;1146;104472;-75
2021/01/01 09:55:50;;;;;;;47.15;23.25;;;;;;;2.32;69.36;99559.30;119004;1147;104617;-75
2021/01/01 09:58:18;;;;;;;35.10;16.40;;;;;;;2.31;70.43;99563.73;118899;1147;104479;-75
2021/01/01 10:00:47;;;;;;;60.65;29.85;;;;;;;2.30;69.50;99554.14;118609;1146;104550;-76
2021/01/01 10:03:15;;;;;;;33.70;16.87;;;;;;;2.26;69.97;99555.34;118542;1147;104451;-77
2021/01/01 10:05:46;;;;;;;43.40;22.17;;;;;;;2.23;69.44;99549.46;119019;1147;104684;-78
2021/01/01 10:08:15;;;;;;;35.50;19.05;;;;;;;2.25;69.80;99564.20;119057;1147;104556;-78
2021/01/01 10:10:45;;;;;;;19.73;10.50;;;;;;;2.27;71.02;99562.29;119016;1147;104464;-79
2021/01/01 10:13:13;;;;;;;21.93;10.80;;;;;;;2.29;69.87;99563.02;119043;1147;104507;-77
2021/01/01 10:15:42;;;;;;;26.27;14.27;;;;;;;2.31;70.10;99558.46;119025;1147;104642;-77
2021/01/01 10:18:10;;;;;;;24.17;10.80;;;;;;;2.39;69.88;99554.38;119084;1147;104567;-74
2021/01/01 10:20:38;;;;;;;20.45;11.15;;;;;;;2.38;70.26;99563.25;119020;1147;104521;-75
2021/01/01 10:23:07;;;;;;;20.40;11.30;;;;;;;2.33;70.30;99556.55;119040;1147;104553;-74
2021/01/01 10:25:36;;;;;;;24.93;15.80;;;;;;;2.28;70.23;99556.05;119093;1146;104497;-76
2021/01/01 10:28:04;;;;;;;20.07;11.13;;;;;;;2.25;69.67;99553.67;118724;1148;104605;-77
2021/01/01 10:30:32;;;;;;;33.53;19.37;;;;;;;2.23;70.63;99555.55;119149;1147;104474;-76
2021/01/01 10:33:01;;;;;;;23.35;10.95;;;;;;;2.29;70.15;99559.52;120292;1148;104471;-75
2021/01/01 10:35:29;;;;;;;21.10;11.43;;;;;;;2.31;70.27;99554.97;118921;1147;104549;-75
2021/01/01 10:37:57;;;;;;;16.73;7.77;;;;;;;2.33;70.10;99553.91;119165;1147;104496;-74
2021/01/01 10:40:25;;;;;;;25.83;12.67;;;;;;;2.33;69.94;99556.55;118996;1147;104472;-76
2021/01/01 10:42:53;;;;;;;25.55;11.70;;;;;;;2.27;70.39;99559.66;118887;1147;104473;-75
2021/01/01 10:45:21;;;;;;;26.23;10.17;;;;;;;2.23;70.13;99554.73;119047;1145;104465;-75
2021/01/01 10:47:49;;;;;;;29.90;11.57;;;;;;;2.18;70.34;99551.63;118988;1147;104553;-74
2021/01/01 10:50:18;;;;;;;21.75;10.20;;;;;;;2.19;69.87;99548.02;119046;1147;104550;-75
2021/01/01 10:52:46;;;;;;;22.23;9.50;;;;;;;2.19;70.46;99551.48;119320;1147;104525;-76
2021/01/01 10:55:15;;;;;;;18.80;8.87;;;;;;;2.16;69.56;99543.84;119015;1147;104554;-76
2021/01/01 10:57:43;;;;;;;17.67;8.83;;;;;;;2.18;70.22;99536.66;118870;1147;104550;-77
2021/01/01 11:00:13;;;;;;;23.90;10.30;;;;;;;2.13;70.78;99544.89;119100;1147;104451;-77
2021/01/01 11:02:41;;;;;;;24.73;9.67;;;;;;;2.10;70.04;99541.69;119135;1148;104858;-75
2021/01/01 11:05:12;;;;;;;30.83;11.30;;;;;;;2.16;70.54;99538.58;118976;1147;104646;-76
2021/01/01 11:07:40;;;;;;;28.00;12.17;;;;;;;2.18;70.56;99546.36;118991;1147;104537;-75
2021/01/01 11:10:09;;;;;;;24.40;10.77;;;;;;;2.19;70.30;99538.33;118701;1146;104556;-75
2021/01/01 11:12:38;;;;;;;30.60;13.45;;;;;;;2.23;70.19;99544.20;119012;1147;104560;-76
2021/01/01 12:22:25;;;;;;;91.00;34.80;;;;;;;2.33;70.12;99550.45;118996;1147;104535;-71
2021/01/01 12:24:55;;;;;;;218.05;75.25;;;;;;;2.29;69.86;99547.22;118912;1147;104483;-72
2021/01/01 12:27:27;;;;;;;77.10;28.50;;;;;;;2.21;70.15;99546.94;118522;1147;104492;-73
2021/01/01 12:29:57;;;;;;;86.10;34.47;;;;;;;2.20;70.28;99544.45;118993;1147;104950;-74
2021/01/01 12:32:25;;;;;;;99.30;40.65;;;;;;;2.23;70.73;99545.03;118914;1147;104672;-74